createdAt,value
2019-02-19T00:01:01.445Z,6.50
2019-02-19T00:03:30.163Z,6.50
2019-02-19T00:05:58.986Z,6.40
2019-02-19T00:08:27.743Z,6.50
2019-02-19T00:10:57.455Z,6.50
2019-02-19T00:13:26.990Z,6.70
2019-02-19T00:15:56.140Z,6.60
2019-02-19T00:18:24.923Z,6.70
2019-02-19T00:20:53.792Z,6.50
2019-02-19T00:23:23.526Z,6.70
2019-02-19T00:25:53.266Z,6.60
2019-02-19T00:33:43.684Z,6.20
2019-02-19T00:36:12.587Z,6.20
2019-02-19T00:38:41.913Z,6.40
2019-02-19T00:41:10.685Z,6.20
2019-02-19T00:43:39.489Z,6.40
2019-02-19T00:46:08.438Z,6.10
2019-02-19T00:48:37.233Z,5.90
2019-02-19T00:51:06.025Z,6.10
2019-02-19T00:53:34.762Z,6.10
2019-02-19T00:56:03.645Z,6.20
2019-02-19T00:58:33.846Z,6.00
2019-02-19T01:01:02.656Z,6.00
2019-02-19T01:03:31.529Z,5.90
2019-02-19T01:06:04.263Z,6.10
2019-02-19T01:08:32.938Z,6.10
2019-02-19T01:11:01.892Z,5.90
2019-02-19T01:13:31.172Z,6.10
2019-02-19T01:16:01.584Z,6.20
2019-02-19T01:18:30.414Z,6.30
2019-02-19T01:20:59.213Z,6.20
2019-02-19T01:23:27.959Z,6.10
2019-02-19T01:25:58.191Z,6.10
2019-02-19T01:28:27.413Z,6.00
2019-02-19T01:30:56.273Z,6.20
2019-02-19T01:33:25.024Z,6.10
2019-02-19T01:35:53.811Z,5.90
2019-02-19T01:38:22.605Z,6.10
2019-02-19T01:40:51.401Z,6.10
2019-02-19T01:43:20.098Z,6.00
2019-02-19T01:45:48.897Z,6.10
2019-02-19T01:48:17.633Z,6.20
2019-02-19T01:50:46.344Z,6.30
2019-02-19T01:53:15.106Z,6.20
2019-02-19T01:55:45.130Z,6.20
2019-02-19T01:58:13.865Z,6.10
2019-02-19T02:00:42.771Z,6.10
2019-02-19T02:03:11.549Z,6.10
2019-02-19T02:05:40.214Z,6.10
2019-02-19T02:08:09.003Z,6.20
2019-02-19T02:10:37.721Z,6.20
2019-02-19T02:13:07.295Z,5.90
2019-02-19T02:15:42.465Z,5.80
2019-02-19T02:18:09.097Z,6.20
2019-02-19T02:20:37.813Z,6.20
2019-02-19T02:23:08.928Z,6.20
2019-02-19T02:25:37.747Z,6.30
2019-02-19T02:28:06.570Z,6.10
2019-02-19T02:30:35.354Z,6.00
2019-02-19T02:33:04.131Z,6.10
2019-02-19T02:35:32.907Z,6.10
2019-02-19T02:38:01.757Z,5.90
2019-02-19T02:40:30.535Z,5.90
2019-02-19T02:43:05.022Z,5.80
2019-02-19T02:45:35.311Z,6.10
2019-02-19T02:48:04.131Z,6.10
2019-02-19T02:50:32.897Z,6.30
2019-02-19T02:53:01.641Z,6.30
2019-02-19T02:55:31.347Z,6.00
2019-02-19T02:58:00.078Z,5.90
2019-02-19T03:00:28.825Z,6.10
2019-02-19T03:02:57.579Z,6.20
2019-02-19T03:05:26.371Z,5.90
2019-02-19T03:07:59.433Z,5.80
2019-02-19T03:10:29.746Z,6.00
2019-02-19T03:12:58.633Z,5.80
2019-02-19T03:15:27.447Z,6.00
2019-02-19T03:17:56.140Z,6.10
2019-02-19T03:20:24.930Z,5.90
2019-02-19T03:22:53.694Z,6.10
2019-02-19T03:25:22.497Z,6.10
2019-02-19T03:27:51.253Z,6.00
2019-02-19T03:30:20.008Z,6.10
2019-02-19T03:32:48.745Z,5.90
2019-02-19T03:35:17.475Z,5.90
2019-02-19T03:37:46.245Z,5.80
2019-02-19T03:40:14.989Z,5.70
2019-02-19T03:42:43.745Z,5.60
2019-02-19T03:45:12.514Z,5.80
2019-02-19T03:47:43.393Z,5.80
2019-02-19T03:50:12.784Z,5.80
2019-02-19T03:52:41.552Z,5.70
2019-02-19T03:55:10.359Z,5.60
2019-02-19T03:57:39.211Z,5.60
2019-02-19T04:00:08.868Z,5.70
2019-02-19T04:02:37.647Z,5.70
2019-02-19T04:05:06.714Z,5.60
2019-02-19T04:07:36.459Z,5.50
2019-02-19T04:10:08.430Z,5.60
2019-02-19T04:12:37.305Z,5.50
2019-02-19T04:15:07.284Z,5.60
2019-02-19T04:17:36.904Z,5.40
2019-02-19T04:20:07.573Z,5.50
2019-02-19T04:22:36.362Z,5.60
2019-02-19T04:25:05.473Z,5.50
2019-02-19T04:27:34.245Z,5.50
2019-02-19T04:30:03.076Z,5.70
2019-02-19T04:32:31.807Z,5.60
2019-02-19T04:35:00.588Z,5.60
2019-02-19T04:37:30.128Z,5.50
2019-02-19T04:39:58.946Z,5.60
2019-02-19T04:42:28.097Z,5.50
2019-02-19T04:44:56.892Z,5.40
2019-02-19T04:47:25.581Z,5.40
2019-02-19T04:49:54.311Z,5.30
2019-02-19T04:52:23.108Z,5.40
2019-02-19T04:54:51.834Z,5.40
2019-02-19T04:57:20.588Z,5.40
2019-02-19T04:59:49.426Z,5.50
2019-02-19T05:02:19.054Z,5.60
2019-02-19T05:04:48.220Z,5.60
2019-02-19T05:07:17.764Z,5.60
2019-02-19T05:09:46.913Z,5.60
2019-02-19T05:12:15.962Z,5.60
2019-02-19T05:14:45.077Z,5.70
2019-02-19T05:17:13.837Z,5.70
2019-02-19T05:19:44.547Z,5.70
2019-02-19T05:22:13.322Z,5.70
2019-02-19T05:24:42.631Z,5.90
2019-02-19T05:27:11.381Z,6.00
2019-02-19T05:29:40.116Z,5.90
2019-02-19T05:32:08.981Z,5.70
2019-02-19T05:34:37.736Z,5.70
2019-02-19T05:37:08.298Z,5.90
2019-02-19T05:39:36.998Z,5.80
2019-02-19T05:42:05.756Z,6.00
2019-02-19T05:44:34.592Z,5.80
2019-02-19T05:47:03.587Z,5.90
2019-02-19T05:49:32.322Z,5.70
2019-02-19T05:52:01.242Z,5.60
2019-02-19T05:54:30.450Z,5.40
2019-02-19T05:56:59.282Z,5.40
2019-02-19T05:59:28.027Z,5.50
2019-02-19T06:01:57.087Z,5.50
2019-02-19T06:04:25.880Z,5.40
2019-02-19T06:06:54.767Z,5.30
2019-02-19T06:09:23.986Z,5.30
2019-02-19T06:11:53.294Z,5.40
2019-02-19T06:14:22.149Z,5.50
2019-02-19T06:16:58.263Z,5.40
2019-02-19T06:19:22.116Z,5.40
2019-02-19T06:21:50.992Z,5.60
2019-02-19T06:24:21.308Z,5.90
2019-02-19T06:26:51.642Z,5.80
2019-02-19T06:29:20.621Z,5.60
2019-02-19T06:31:49.414Z,5.60
2019-02-19T06:34:19.031Z,5.50
2019-02-19T06:36:48.246Z,5.40
2019-02-19T06:39:23.378Z,5.70
2019-02-19T06:41:52.166Z,5.90
2019-02-19T06:44:20.974Z,5.70
2019-02-19T06:46:50.528Z,5.70
2019-02-19T06:49:19.397Z,5.60
2019-02-19T06:51:48.109Z,5.70
2019-02-19T06:54:18.385Z,5.80
2019-02-19T06:56:48.763Z,5.80
2019-02-19T06:59:19.042Z,5.60
2019-02-19T07:02:05.768Z,6.00
2019-02-19T07:04:36.160Z,6.50
2019-02-19T07:07:04.977Z,6.50
2019-02-19T07:09:33.844Z,6.10
2019-02-19T07:12:02.672Z,5.90
2019-02-19T07:14:31.424Z,5.80
2019-02-19T07:17:00.146Z,6.10
2019-02-19T07:19:30.699Z,6.10
2019-02-19T07:22:00.266Z,6.10
2019-02-19T07:24:29.196Z,6.10
2019-02-19T07:26:58.227Z,6.00
2019-02-19T07:29:27.174Z,6.30
2019-02-19T07:31:56.090Z,6.50
2019-02-19T07:34:25.221Z,6.30
2019-02-19T07:36:54.037Z,6.30
2019-02-19T07:39:22.781Z,6.40
2019-02-19T07:41:53.959Z,6.10
2019-02-19T07:44:22.715Z,6.20
2019-02-19T07:46:51.626Z,6.20
2019-02-19T07:49:20.391Z,6.10
2019-02-19T07:51:49.086Z,6.00
2019-02-19T07:54:17.784Z,6.10
2019-02-19T07:56:46.539Z,6.20
2019-02-19T07:59:15.246Z,6.20
2019-02-19T08:01:44.210Z,6.20
2019-02-19T08:04:13.201Z,6.20
2019-02-19T08:06:41.966Z,6.00
2019-02-19T08:09:13.438Z,6.20
2019-02-19T08:11:42.183Z,6.00
2019-02-19T08:14:11.769Z,6.00
2019-02-19T08:16:40.562Z,6.10
2019-02-19T08:19:10.921Z,6.00
2019-02-19T08:21:39.651Z,6.10
2019-02-19T08:24:08.686Z,5.90
2019-02-19T08:26:37.498Z,6.10
2019-02-19T08:29:13.430Z,6.40
2019-02-19T08:31:36.936Z,6.20
2019-02-19T08:34:07.357Z,6.10
2019-02-19T08:36:37.535Z,6.20
2019-02-19T08:39:08.657Z,6.00
2019-02-19T08:41:37.470Z,6.00
2019-02-19T08:44:06.281Z,6.30
2019-02-19T08:46:35.094Z,6.30
2019-02-19T08:49:04.418Z,6.20
2019-02-19T08:51:33.241Z,6.10
2019-02-19T08:54:02.030Z,6.50
2019-02-19T08:56:32.164Z,6.70
2019-02-19T08:59:00.948Z,7.00
2019-02-19T09:01:29.673Z,6.70
2019-02-19T09:03:58.409Z,7.00
2019-02-19T09:06:27.678Z,6.90
2019-02-19T09:08:56.494Z,7.10
2019-02-19T09:11:25.307Z,7.40
2019-02-19T09:13:54.066Z,7.20
2019-02-19T09:16:22.792Z,7.00
2019-02-19T09:18:51.549Z,7.60
2019-02-19T09:21:20.570Z,7.90
2019-02-19T09:23:49.320Z,8.00
2019-02-19T09:26:18.067Z,8.10
2019-02-19T09:28:48.678Z,7.90
2019-02-19T09:31:17.343Z,7.70
2019-02-19T09:33:46.243Z,7.40
2019-02-19T09:36:15.012Z,7.70
2019-02-19T09:38:43.753Z,8.40
2019-02-19T09:41:12.588Z,8.30
2019-02-19T09:43:41.894Z,8.10
2019-02-19T09:46:10.631Z,8.70
2019-02-19T09:48:39.513Z,8.60
2019-02-19T09:51:08.269Z,8.50
2019-02-19T09:53:37.021Z,8.30
2019-02-19T09:56:05.864Z,8.20
2019-02-19T09:58:34.607Z,8.30
2019-02-19T10:01:04.830Z,8.40
2019-02-19T10:03:33.556Z,8.80
2019-02-19T10:06:02.332Z,8.90
2019-02-19T10:08:31.342Z,9.00
2019-02-19T10:11:00.089Z,8.60
2019-02-19T10:13:28.841Z,9.00
2019-02-19T10:15:57.601Z,9.10
2019-02-19T10:18:26.393Z,9.30
2019-02-19T10:20:55.168Z,9.00
2019-02-19T10:23:23.885Z,8.60
2019-02-19T10:25:52.759Z,8.60
2019-02-19T10:28:21.501Z,8.80
2019-02-19T10:30:50.342Z,8.90
2019-02-19T10:33:20.279Z,9.30
2019-02-19T10:35:51.885Z,9.00
2019-02-19T10:38:20.633Z,9.30
2019-02-19T10:40:49.390Z,9.00
2019-02-19T10:43:18.286Z,9.10
2019-02-19T10:45:47.501Z,8.90
2019-02-19T10:48:19.077Z,8.90
2019-02-19T10:50:48.305Z,9.20
2019-02-19T10:53:17.201Z,9.20
2019-02-19T10:55:46.004Z,9.20
2019-02-19T10:58:22.579Z,9.30
2019-02-19T11:00:45.931Z,9.30
2019-02-19T11:03:14.738Z,9.30
2019-02-19T11:05:43.537Z,9.20
2019-02-19T11:08:13.915Z,9.60
2019-02-19T11:10:42.768Z,9.60
2019-02-19T11:13:12.752Z,9.60
2019-02-19T11:15:41.659Z,9.90
2019-02-19T11:18:10.427Z,9.80
2019-02-19T11:20:39.778Z,10.00
2019-02-19T11:23:09.766Z,9.80
2019-02-19T11:25:38.643Z,9.90
2019-02-19T11:28:07.429Z,9.90
2019-02-19T11:30:36.186Z,9.80
2019-02-19T11:33:05.108Z,9.80
2019-02-19T11:35:34.396Z,10.00
2019-02-19T11:38:03.482Z,10.60
2019-02-19T11:40:32.318Z,10.60
2019-02-19T11:43:01.913Z,10.70
2019-02-19T11:45:30.849Z,10.80
2019-02-19T11:47:59.800Z,10.90
2019-02-19T11:50:28.612Z,11.10
2019-02-19T11:52:57.530Z,11.80
2019-02-19T11:55:26.369Z,12.10
2019-02-19T11:57:57.510Z,12.10
2019-02-19T12:00:41.536Z,12.60
2019-02-19T12:03:10.406Z,12.90
2019-02-19T12:05:41.122Z,13.00
2019-02-19T12:08:10.030Z,13.60
2019-02-19T12:10:40.944Z,13.90
2019-02-19T12:13:09.881Z,13.40
2019-02-19T12:15:39.162Z,13.00
2019-02-19T12:18:09.030Z,12.20
2019-02-19T12:20:39.189Z,12.40
2019-02-19T12:23:09.830Z,11.70
2019-02-19T12:25:41.074Z,11.70
2019-02-19T12:28:10.226Z,12.70
2019-02-19T12:30:39.740Z,12.30
2019-02-19T12:33:09.574Z,11.50
2019-02-19T12:35:41.855Z,11.60
2019-02-19T12:41:02.585Z,11.30
2019-02-19T12:43:31.400Z,11.30
2019-02-19T12:46:00.247Z,11.40
2019-02-19T12:48:29.453Z,12.00
2019-02-19T12:50:58.346Z,12.30
2019-02-19T12:53:27.898Z,12.30
2019-02-19T12:55:57.524Z,11.80
2019-02-19T12:58:26.628Z,11.60
2019-02-19T13:00:58.391Z,10.90
2019-02-19T13:03:28.563Z,10.80
2019-02-19T13:05:57.766Z,11.40
2019-02-19T13:08:27.494Z,11.60
2019-02-19T13:10:56.390Z,11.70
2019-02-19T13:13:26.930Z,12.40
2019-02-19T13:15:55.835Z,13.00
2019-02-19T13:18:24.682Z,13.20
2019-02-19T13:20:54.524Z,11.50
2019-02-19T13:23:23.366Z,11.40
2019-02-19T13:25:52.756Z,11.20
2019-02-19T13:28:21.543Z,11.00
2019-02-19T13:30:50.476Z,10.90
2019-02-19T13:33:20.659Z,11.30
2019-02-19T13:35:50.719Z,11.30
2019-02-19T13:38:19.564Z,11.90
2019-02-19T13:40:48.500Z,12.40
2019-02-19T13:43:17.373Z,12.20
2019-02-19T13:45:47.882Z,12.40
2019-02-19T13:48:17.332Z,12.50
2019-02-19T13:50:48.862Z,12.50
2019-02-19T13:53:19.364Z,13.00
2019-02-19T13:55:50.387Z,13.40
2019-02-19T13:58:20.096Z,13.70
2019-02-19T14:00:58.592Z,13.30
2019-02-19T14:03:27.761Z,12.40
2019-02-19T14:05:57.488Z,12.20
2019-02-19T14:08:27.847Z,12.60
2019-02-19T14:10:57.113Z,13.20
2019-02-19T14:13:25.925Z,13.60
2019-02-19T14:16:11.185Z,12.40
2019-02-19T14:18:47.388Z,12.10
2019-02-19T14:21:32.725Z,12.80
2019-02-19T14:24:06.341Z,12.60
2019-02-19T14:26:53.118Z,12.40
2019-02-19T14:29:41.627Z,12.10
2019-02-19T14:32:18.241Z,12.60
2019-02-19T14:35:05.266Z,13.00
2019-02-19T14:37:35.669Z,12.80
2019-02-19T14:40:19.167Z,11.80
2019-02-19T14:43:02.190Z,11.60
2019-02-19T14:45:39.425Z,11.80
2019-02-19T14:48:21.830Z,11.60
2019-02-19T14:50:57.870Z,11.90
2019-02-19T14:53:44.017Z,12.10
2019-02-19T14:56:30.948Z,12.00
2019-02-19T14:59:04.500Z,11.60
2019-02-19T15:02:06.065Z,11.60
2019-02-19T15:04:46.382Z,11.70
2019-02-19T15:10:27.600Z,11.70
2019-02-19T15:13:15.865Z,11.30
2019-02-19T15:15:46.333Z,11.50
2019-02-19T15:18:22.619Z,11.80
2019-02-19T15:20:59.399Z,11.90
2019-02-19T15:23:45.429Z,12.00
2019-02-19T15:26:19.415Z,12.40
2019-02-19T15:28:54.351Z,12.50
2019-02-19T15:31:39.782Z,12.30
2019-02-19T15:34:27.375Z,12.40
2019-02-19T15:36:57.828Z,12.20
2019-02-19T15:39:31.437Z,11.90
2019-02-19T15:42:08.407Z,11.60
2019-02-19T15:44:57.411Z,11.80
2019-02-19T15:47:33.699Z,11.80
2019-02-19T15:50:04.550Z,11.70
2019-02-19T15:52:35.379Z,11.50
2019-02-19T15:55:11.684Z,11.50
2019-02-19T15:57:42.235Z,11.90
2019-02-19T16:00:22.800Z,12.20
2019-02-19T16:03:04.749Z,12.10
2019-02-19T16:05:35.788Z,11.80
2019-02-19T16:08:06.290Z,12.00
2019-02-19T16:10:39.137Z,11.90
2019-02-19T16:13:12.245Z,12.10
2019-02-19T16:15:51.514Z,12.60
2019-02-19T16:18:41.391Z,12.40
2019-02-19T16:21:28.664Z,12.60
2019-02-19T16:24:01.716Z,12.00
2019-02-19T16:26:35.554Z,11.80
2019-02-19T16:29:21.302Z,11.80
2019-02-19T16:32:04.866Z,12.00
2019-02-19T16:34:38.401Z,12.00
2019-02-19T16:45:29.879Z,11.80
2019-02-19T16:48:10.537Z,12.10
2019-02-19T16:50:53.260Z,11.50
2019-02-19T16:53:42.352Z,11.60
2019-02-19T16:56:32.671Z,11.50
2019-02-19T16:59:10.448Z,12.00
2019-02-19T17:01:56.692Z,11.70
2019-02-19T17:04:35.028Z,11.60
2019-02-19T17:07:21.942Z,11.50
2019-02-19T17:10:07.863Z,11.40
2019-02-19T17:12:50.314Z,11.10
2019-02-19T17:15:22.285Z,11.20
2019-02-19T17:18:04.838Z,11.10
2019-02-19T17:20:48.421Z,11.10
2019-02-19T17:23:26.316Z,11.20
2019-02-19T17:26:08.931Z,11.40
2019-02-19T17:28:56.911Z,11.70
2019-02-19T17:31:44.483Z,11.80
2019-02-19T17:34:20.755Z,12.20
2019-02-19T17:36:51.321Z,12.30
2019-02-19T17:39:30.961Z,11.80
2019-02-19T17:42:10.428Z,12.00
2019-02-19T17:44:52.682Z,12.00
2019-02-19T17:47:23.419Z,11.40
2019-02-19T17:50:01.126Z,11.20
2019-02-19T17:52:38.179Z,11.30
2019-02-19T17:55:24.680Z,11.10
2019-02-19T17:58:11.592Z,11.40
2019-02-19T18:00:55.823Z,11.60
2019-02-19T18:03:30.255Z,11.00
2019-02-19T18:06:10.261Z,11.10
2019-02-19T18:08:44.769Z,11.00
2019-02-19T18:11:16.090Z,11.30
2019-02-19T18:13:50.437Z,11.60
2019-02-19T18:16:27.440Z,11.90
2019-02-19T18:18:57.430Z,11.70
2019-02-19T18:21:34.199Z,11.50
2019-02-19T18:24:04.774Z,11.30
2019-02-19T18:26:38.189Z,11.20
2019-02-19T18:29:08.143Z,11.40
2019-02-19T18:31:43.208Z,11.60
2019-02-19T18:34:11.151Z,12.00
2019-02-19T18:36:41.961Z,12.00
2019-02-19T18:39:10.810Z,11.50
2019-02-19T18:41:39.686Z,11.50
2019-02-19T18:44:17.715Z,11.50
2019-02-19T18:46:47.069Z,11.50
2019-02-19T18:49:17.411Z,11.60
2019-02-19T18:51:48.065Z,11.80
2019-02-19T18:54:16.972Z,11.50
2019-02-19T18:56:47.170Z,11.60
2019-02-19T18:59:19.832Z,11.70
2019-02-19T19:01:53.244Z,11.80
2019-02-19T19:04:22.210Z,11.10
2019-02-19T19:06:52.412Z,11.20
2019-02-19T19:09:22.138Z,11.10
2019-02-19T19:11:51.058Z,10.90
2019-02-19T19:14:19.871Z,11.00
2019-02-19T19:16:49.074Z,11.10
2019-02-19T19:19:17.867Z,10.80
2019-02-19T19:21:46.814Z,10.50
2019-02-19T19:24:16.069Z,10.40
2019-02-19T19:26:48.993Z,10.40
2019-02-19T19:29:18.075Z,10.40
2019-02-19T19:31:47.053Z,10.30
2019-02-19T19:34:16.700Z,10.30
2019-02-19T19:36:46.363Z,10.30
2019-02-19T19:39:16.057Z,10.30
2019-02-19T19:41:44.797Z,10.40
2019-02-19T19:44:24.923Z,10.40
2019-02-19T19:46:50.025Z,10.10
2019-02-19T19:49:19.213Z,10.40
2019-02-19T19:51:49.902Z,10.60
2019-02-19T19:54:19.192Z,10.30
2019-02-19T19:56:48.101Z,10.40
2019-02-19T19:59:21.696Z,10.50
2019-02-19T20:01:50.593Z,10.50
2019-02-19T20:04:21.321Z,10.20
2019-02-19T20:06:51.551Z,10.30
2019-02-19T20:09:20.915Z,10.30
2019-02-19T20:11:49.703Z,10.30
2019-02-19T20:14:19.953Z,10.00
2019-02-19T20:16:50.159Z,10.30
2019-02-19T20:19:18.986Z,10.30
2019-02-19T20:21:47.734Z,9.90
2019-02-19T20:24:16.487Z,10.20
2019-02-19T20:26:45.246Z,10.30
2019-02-19T20:29:14.103Z,10.20
2019-02-19T20:31:44.013Z,10.30
2019-02-19T20:34:14.924Z,10.70
2019-02-19T20:36:43.758Z,10.70
2019-02-19T20:39:12.574Z,10.50
2019-02-19T20:41:41.279Z,11.10
2019-02-19T20:44:10.117Z,10.70
2019-02-19T20:46:38.968Z,10.50
2019-02-19T20:49:09.124Z,10.70
2019-02-19T20:51:39.187Z,10.70
2019-02-19T20:54:08.015Z,10.70
2019-02-19T20:56:46.282Z,10.20
2019-02-19T20:59:16.421Z,10.20
2019-02-19T21:02:09.727Z,10.00
2019-02-19T21:04:44.073Z,10.40
2019-02-19T21:07:16.973Z,10.50
2019-02-19T21:09:49.318Z,10.20
2019-02-19T21:12:19.604Z,9.90
2019-02-19T21:14:51.345Z,10.10
2019-02-19T21:17:23.281Z,10.10
2019-02-19T21:19:55.482Z,10.00
2019-02-19T21:22:25.075Z,9.70
2019-02-19T21:24:54.869Z,10.10
2019-02-19T21:27:25.543Z,10.00
2019-02-19T21:29:57.509Z,10.00
2019-02-19T21:32:30.542Z,10.70
2019-02-19T21:34:59.429Z,10.60
2019-02-19T21:37:29.271Z,10.60
2019-02-19T21:40:01.421Z,10.70
2019-02-19T21:42:43.799Z,10.70
2019-02-19T21:45:13.870Z,10.40
2019-02-19T21:47:48.543Z,10.30
2019-02-19T21:50:18.991Z,9.90
2019-02-19T21:52:54.358Z,10.10
2019-02-19T21:55:24.889Z,10.10
2019-02-19T21:57:56.992Z,10.00
2019-02-19T22:00:27.330Z,10.10
2019-02-19T22:02:57.339Z,10.00
2019-02-19T22:05:28.177Z,10.00
2019-02-19T22:07:59.903Z,9.80
2019-02-19T22:10:32.436Z,9.90
2019-02-19T22:13:01.317Z,9.80
2019-02-19T22:15:31.003Z,10.00
2019-02-19T22:18:04.346Z,9.90
2019-02-19T22:20:37.166Z,9.60
2019-02-19T22:23:07.277Z,9.50
2019-02-19T22:25:37.059Z,9.90
2019-02-19T22:28:07.027Z,9.70
2019-02-19T22:30:36.833Z,9.90
2019-02-19T22:33:09.931Z,9.50
2019-02-19T22:35:40.233Z,10.00
2019-02-19T22:38:11.811Z,9.90
2019-02-19T22:40:40.719Z,10.00
2019-02-19T22:43:09.528Z,9.80
2019-02-19T22:48:18.774Z,9.70
2019-02-19T22:51:02.406Z,9.80
2019-02-19T22:53:41.618Z,9.50
2019-02-19T22:59:09.410Z,9.50
2019-02-19T23:01:42.332Z,9.50
2019-02-19T23:04:19.856Z,9.40
2019-02-19T23:06:50.929Z,9.50
2019-02-19T23:09:20.766Z,9.70
2019-02-19T23:11:50.939Z,9.40
2019-02-19T23:14:21.673Z,9.30
2019-02-19T23:16:52.248Z,9.20
2019-02-19T23:19:23.065Z,9.20
2019-02-19T23:21:52.120Z,9.20
2019-02-19T23:24:22.457Z,9.20
2019-02-19T23:26:51.301Z,9.40
2019-02-19T23:29:20.156Z,9.40
2019-02-19T23:31:49.017Z,9.10
2019-02-19T23:34:17.948Z,9.30
2019-02-19T23:37:08.111Z,9.30
2019-02-19T23:39:44.710Z,9.40
2019-02-19T23:42:13.437Z,9.60
2019-02-19T23:44:42.556Z,9.70
2019-02-19T23:47:12.876Z,9.50
2019-02-19T23:49:42.858Z,9.40
2019-02-19T23:52:11.956Z,9.60
2019-02-19T23:54:40.702Z,9.50
2019-02-19T23:57:10.167Z,9.40
2019-02-19T23:59:38.974Z,9.60
